Time;durP1;ratioP1;P1;durP2;ratioP2;P2;SDS_P1;SDS_P2;PMS_P1;PMS_P2;Temp;Humidity;BMP_temperature;BMP_pressure;BME280_temperature;BME280_humidity;BME280_pressure;Samples;Min_cycle;Max_cycle;Signal;HPM_P1;HPM_P2
2021/08/21 00:01:20;;;;;;;5.97;3.38;;;;;;;19.53;67.71;98749.81;5094424;28;20035;-49
2021/08/21 00:03:46;;;;;;;6.60;5.28;;;;;;;19.45;67.84;98749.50;5112740;28;20059;-49
2021/08/21 00:06:12;;;;;;;17.05;13.70;;;;;;;19.38;68.03;98759.56;5094387;28;20439;-49
2021/08/21 00:08:38;;;;;;;10.48;6.43;;;;;;;19.26;68.57;98754.44;5112640;28;20031;-49
2021/08/21 00:11:05;;;;;;;5.22;4.28;;;;;;;19.11;69.02;98755.13;5112316;28;20536;-49
2021/08/21 00:13:30;;;;;;;8.38;4.25;;;;;;;19.01;69.56;98757.69;5112598;28;20020;-49
2021/08/21 00:15:56;;;;;;;7.55;4.53;;;;;;;18.96;69.73;98756.59;5112493;28;20515;-49
2021/08/21 00:18:22;;;;;;;10.23;5.22;;;;;;;18.91;69.79;98753.09;5112422;28;20019;-48
2021/08/21 00:20:48;;;;;;;39.67;35.65;;;;;;;18.85;69.93;98759.41;5112459;28;20026;-49
2021/08/21 00:23:14;;;;;;;12.93;9.40;;;;;;;18.78;70.10;98751.63;5112447;28;20048;-49
2021/08/21 00:25:40;;;;;;;11.98;10.60;;;;;;;18.74;70.25;98753.97;5112410;28;20062;-49
2021/08/21 00:28:05;;;;;;;17.02;12.05;;;;;;;18.70;70.28;98755.53;5112369;28;20046;-49
2021/08/21 00:30:31;;;;;;;16.13;12.45;;;;;;;18.76;70.60;98757.19;5111016;28;20020;-49
2021/08/21 00:32:57;;;;;;;8.68;7.82;;;;;;;18.86;70.18;98761.03;5110990;28;20061;-49
2021/08/21 00:35:23;;;;;;;10.68;5.30;;;;;;;19.03;69.64;98760.91;5112306;28;20436;-49
2021/08/21 00:37:50;;;;;;;9.52;4.60;;;;;;;19.20;69.40;98758.13;5093873;28;20016;-49
2021/08/21 00:40:17;;;;;;;9.70;6.05;;;;;;;19.28;68.90;98752.31;5112199;28;20062;-49
2021/08/21 00:42:42;;;;;;;13.45;10.52;;;;;;;19.22;68.84;98748.03;5093403;28;20069;-49
2021/08/21 00:45:09;;;;;;;9.07;5.90;;;;;;;19.19;68.80;98756.50;5093875;28;20509;-48
2021/08/21 00:47:34;;;;;;;11.60;10.18;;;;;;;19.26;68.71;98751.78;5093862;28;20024;-49
2021/08/21 00:50:00;;;;;;;5.55;4.50;;;;;;;19.37;68.54;98750.78;5112175;28;20508;-49
2021/08/21 00:52:29;;;;;;;6.38;4.28;;;;;;;19.32;68.46;98754.22;5093828;28;20020;-49
2021/08/21 00:54:56;;;;;;;6.85;4.80;;;;;;;19.22;68.73;98748.81;5093828;28;20027;-49
2021/08/21 00:57:23;;;;;;;15.68;13.77;;;;;;;19.29;68.48;98754.72;5112083;28;20069;-48
2021/08/21 00:59:51;;;;;;;11.70;8.30;;;;;;;19.44;68.04;98747.91;5111946;28;20030;-49
2021/08/21 01:02:18;;;;;;;12.38;8.05;;;;;;;19.43;67.90;98747.09;5112024;28;20023;-49
2021/08/21 01:04:50;;;;;;;9.70;5.90;;;;;;;19.49;67.68;98743.41;5093707;28;20081;-49
2021/08/21 01:07:18;;;;;;;8.25;3.85;;;;;;;19.41;67.84;98745.75;5093783;28;20039;-49
2021/08/21 01:09:44;;;;;;;12.25;6.18;;;;;;;19.26;67.87;98738.47;5112034;28;20023;-49
2021/08/21 01:12:13;;;;;;;8.18;5.63;;;;;;;19.00;68.59;98751.56;5111792;28;20114;-48
2021/08/21 01:14:40;;;;;;;6.03;3.85;;;;;;;18.82;69.38;98743.97;5111994;28;20427;-49
2021/08/21 01:17:06;;;;;;;5.65;3.78;;;;;;;18.66;69.74;98754.44;5111955;28;20481;-49
2021/08/21 01:19:36;;;;;;;7.75;4.55;;;;;;;18.54;70.20;98738.63;5111840;28;20020;-49
2021/08/21 01:22:03;;;;;;;5.78;3.83;;;;;;;18.52;70.15;98745.25;5112168;28;20056;-48
2021/08/21 01:24:28;;;;;;;8.70;4.72;;;;;;;18.54;70.03;98738.63;5093615;28;20493;-49
2021/08/21 01:26:56;;;;;;;9.50;6.30;;;;;;;18.62;69.94;98740.03;5111827;28;20023;-49
2021/08/21 01:29:22;;;;;;;10.05;6.82;;;;;;;18.88;69.60;98737.66;5111845;28;20110;-49
2021/08/21 01:31:49;;;;;;;41.60;38.00;;;;;;;19.03;69.06;98744.94;5093498;28;20424;-49
2021/08/21 01:34:15;;;;;;;12.70;11.13;;;;;;;19.20;68.82;98737.63;5111823;28;20024;-49
2021/08/21 01:36:49;;;;;;;8.32;4.03;;;;;;;19.43;67.89;98733.00;5111682;28;20024;-49
2021/08/21 01:39:16;;;;;;;6.77;4.40;;;;;;;19.23;67.63;98731.00;5093504;28;20435;-49
2021/08/21 01:41:42;;;;;;;8.50;7.00;;;;;;;19.02;68.47;98736.16;5111626;28;20699;-49
2021/08/21 01:44:14;;;;;;;8.82;7.97;;;;;;;19.10;68.34;98735.69;5093363;28;20035;-49
2021/08/21 01:46:40;;;;;;;29.55;26.98;;;;;;;19.16;68.07;98728.56;5093391;28;20055;-49
2021/08/21 01:49:11;;;;;;;8.45;5.85;;;;;;;19.20;67.87;98734.19;5111630;28;20059;-49
2021/08/21 01:51:43;;;;;;;16.45;14.73;;;;;;;19.35;67.74;98736.94;5111525;28;20016;-49
2021/08/21 01:54:10;;;;;;;8.15;6.00;;;;;;;19.44;67.24;98732.75;5094814;28;20065;-49
2021/08/21 01:56:48;;;;;;;11.88;7.28;;;;;;;19.51;67.01;98737.81;5096832;28;20020;-49
2021/08/21 01:59:25;;;;;;;10.63;9.60;;;;;;;19.66;66.82;98745.91;5096807;28;20473;-49
2021/08/21 02:01:52;;;;;;;9.68;8.68;;;;;;;19.86;66.44;98739.09;5115344;28;20023;-49
2021/08/21 02:04:19;;;;;;;14.63;8.15;;;;;;;20.06;65.80;98747.19;5115084;28;20046;-49
2021/08/21 02:06:45;;;;;;;18.95;17.00;;;;;;;20.54;64.99;98749.69;5114985;28;20092;-49
2021/08/21 02:09:12;;;;;;;10.75;6.03;;;;;;;20.98;63.59;98741.25;5114850;28;20474;-50
2021/08/21 02:11:38;;;;;;;5.70;4.38;;;;;;;21.26;62.25;98745.22;5114618;28;20039;-49
2021/08/21 02:14:04;;;;;;;9.68;5.20;;;;;;;21.45;61.71;98748.19;5114940;28;20394;-49
2021/08/21 02:16:29;;;;;;;10.57;7.65;;;;;;;21.58;61.09;98741.47;5114829;28;20098;-49
2021/08/21 02:18:58;;;;;;;8.57;5.72;;;;;;;21.56;60.79;98742.81;5114683;28;20023;-49
2021/08/21 02:21:24;;;;;;;14.18;12.93;;;;;;;21.47;60.98;98737.22;5114740;28;20034;-49
2021/08/21 02:23:51;;;;;;;8.55;7.03;;;;;;;21.40;60.73;98731.34;5114667;28;20023;-49
2021/08/21 02:26:18;;;;;;;6.80;5.10;;;;;;;21.08;61.09;98735.91;5114611;28;20031;-49
2021/08/21 02:28:44;;;;;;;9.73;5.53;;;;;;;20.69;62.16;98735.63;5096189;28;20024;-49
2021/08/21 02:31:10;;;;;;;15.25;13.57;;;;;;;20.62;62.34;98732.41;5096246;28;20016;-49
2021/08/21 02:33:35;;;;;;;9.45;5.25;;;;;;;20.52;62.38;98723.31;5096145;28;20472;-49
2021/08/21 02:36:01;;;;;;;9.85;3.80;;;;;;;20.25;62.98;98728.06;5095999;28;20027;-49
2021/08/21 02:38:27;;;;;;;83.75;76.05;;;;;;;19.87;63.96;98725.53;5114363;28;20016;-49
2021/08/21 02:40:53;;;;;;;9.52;6.35;;;;;;;19.53;65.00;98728.50;5114301;28;20755;-49
2021/08/21 02:43:20;;;;;;;5.80;3.85;;;;;;;19.30;65.75;98729.72;5095949;28;20537;-49
2021/08/21 02:45:47;;;;;;;9.50;4.07;;;;;;;19.21;66.23;98731.25;5114222;28;20110;-49
2021/08/21 02:48:13;;;;;;;11.95;8.75;;;;;;;19.15;66.23;98725.06;5114244;28;20038;-49
2021/08/21 02:50:38;;;;;;;9.45;6.05;;;;;;;19.32;66.70;98732.13;5114147;28;20024;-49
2021/08/21 02:53:04;;;;;;;148.18;133.07;;;;;;;19.71;66.13;98729.19;5114092;28;20027;-49
2021/08/21 02:55:30;;;;;;;22.83;17.02;;;;;;;20.22;64.93;98737.38;5114076;28;20180;-49
2021/08/21 02:57:56;;;;;;;19.42;14.55;;;;;;;20.56;63.78;98723.56;5113886;28;20103;-49
2021/08/21 03:00:22;;;;;;;9.00;6.75;;;;;;;20.68;62.90;98728.69;5113931;28;20090;-49
2021/08/21 03:02:47;;;;;;;5.18;4.00;;;;;;;20.54;62.50;98729.19;5095540;28;20066;-49
2021/08/21 03:05:13;;;;;;;6.45;3.80;;;;;;;19.94;63.48;98727.94;5113382;28;20020;-49
2021/08/21 03:07:39;;;;;;;20.50;18.63;;;;;;;19.38;65.03;98732.94;5113853;28;20044;-50
2021/08/21 03:10:06;;;;;;;7.78;7.07;;;;;;;19.02;66.33;98732.72;5113482;28;20020;-49
2021/08/21 03:12:32;;;;;;;5.53;4.30;;;;;;;18.79;66.81;98731.97;5113792;28;20026;-49
2021/08/21 03:14:58;;;;;;;8.20;7.50;;;;;;;18.71;67.18;98732.41;5113701;28;20024;-49
2021/08/21 03:17:24;;;;;;;19.98;15.63;;;;;;;18.64;67.63;98729.97;5113674;28;20404;-49
2021/08/21 03:19:50;;;;;;;24.80;20.23;;;;;;;18.84;68.12;98732.03;5113521;28;20020;-49
2021/08/21 03:22:16;;;;;;;34.13;28.67;;;;;;;19.03;67.77;98734.31;5113526;28;20034;-48
2021/08/21 03:24:42;;;;;;;5.47;4.72;;;;;;;19.42;66.90;98729.53;5113453;28;20028;-49
2021/08/21 03:27:07;;;;;;;18.60;16.80;;;;;;;19.73;66.11;98738.50;5113434;28;20016;-49
2021/08/21 03:29:33;;;;;;;9.75;6.13;;;;;;;20.05;64.99;98737.59;5113361;28;20032;-49
2021/08/21 03:31:59;;;;;;;22.77;20.45;;;;;;;20.18;64.12;98738.16;5095041;28;20024;-47
2021/08/21 03:34:25;;;;;;;8.68;5.03;;;;;;;20.12;64.21;98735.50;5111976;28;20026;-49
2021/08/21 03:36:54;;;;;;;28.33;25.55;;;;;;;20.01;64.38;98731.19;5113456;28;20081;-49
2021/08/21 03:39:20;;;;;;;9.50;5.80;;;;;;;20.18;63.98;98727.50;5094859;28;20047;-49
2021/08/21 03:41:47;;;;;;;5.70;3.95;;;;;;;20.02;63.88;98727.47;5094925;28;20095;-49
2021/08/21 03:44:12;;;;;;;17.83;8.55;;;;;;;19.71;64.03;98727.31;5094793;28;20491;-49
2021/08/21 03:46:38;;;;;;;5.40;4.10;;;;;;;19.27;65.17;98726.75;5113064;28;20504;-49
2021/08/21 03:49:04;;;;;;;6.47;4.65;;;;;;;18.86;66.61;98727.25;5094740;28;20504;-49
2021/08/21 03:51:30;;;;;;;8.98;5.05;;;;;;;18.65;67.14;98730.75;5112968;28;20404;-49
2021/08/21 03:53:56;;;;;;;6.40;4.45;;;;;;;18.51;67.46;98733.00;5112973;28;20151;-49
2021/08/21 03:56:21;;;;;;;7.28;5.97;;;;;;;18.43;67.92;98731.63;5112875;28;20015;-48
2021/08/21 03:58:47;;;;;;;7.45;5.22;;;;;;;18.41;67.87;98736.41;5094472;28;20076;-49
2021/08/21 04:01:13;;;;;;;6.45;4.32;;;;;;;18.28;68.49;98728.81;5112772;28;20054;-49
2021/08/21 04:03:39;;;;;;;5.70;4.70;;;;;;;18.10;69.18;98735.25;5112782;28;20034;-48
2021/08/21 04:06:08;;;;;;;5.82;4.82;;;;;;;17.96;69.86;98737.47;5112658;28;20051;-49
2021/08/21 04:08:33;;;;;;;8.48;4.70;;;;;;;17.87;70.40;98741.63;5112564;28;20024;-49
2021/08/21 04:10:59;;;;;;;13.63;5.00;;;;;;;17.84;70.56;98744.75;5112376;28;20094;-49
2021/08/21 04:13:27;;;;;;;8.27;6.10;;;;;;;17.98;70.32;98737.22;5112609;28;20016;-49
2021/08/21 04:15:54;;;;;;;10.38;8.32;;;;;;;18.12;69.94;98731.28;5111963;28;20019;-48
2021/08/21 04:18:19;;;;;;;7.57;4.97;;;;;;;18.17;69.66;98738.53;5093935;28;20520;-48
2021/08/21 04:20:46;;;;;;;26.65;23.75;;;;;;;18.25;69.48;98735.44;5094143;28;20032;-48
2021/08/21 04:23:12;;;;;;;9.63;6.95;;;;;;;18.35;69.07;98737.38;5112490;28;20023;-49
2021/08/21 04:25:38;;;;;;;76.20;69.03;;;;;;;18.26;69.26;98741.53;5112387;28;20393;-50
2021/08/21 04:28:05;;;;;;;21.98;15.98;;;;;;;18.20;69.65;98737.22;5112456;28;20509;-49
2021/08/21 04:30:30;;;;;;;16.45;14.65;;;;;;;18.14;69.72;98745.13;5094097;28;20092;-49
2021/08/21 04:32:56;;;;;;;34.33;21.20;;;;;;;18.08;69.83;98748.75;5110988;28;20032;-49
2021/08/21 04:35:22;;;;;;;87.20;57.42;;;;;;;18.04;70.16;98752.97;5094000;28;20098;-49
2021/08/21 04:37:48;;;;;;;27.85;20.45;;;;;;;17.95;70.28;98747.28;5112286;28;20077;-49
2021/08/21 04:40:14;;;;;;;15.20;12.80;;;;;;;17.89;70.43;98752.78;5112136;28;20428;-49
2021/08/21 04:42:40;;;;;;;10.55;6.43;;;;;;;17.88;70.70;98751.19;5112234;28;20016;-49
2021/08/21 04:45:07;;;;;;;34.33;21.52;;;;;;;17.85;70.78;98755.13;5093952;28;20038;-49
2021/08/21 04:47:33;;;;;;;10.65;7.85;;;;;;;17.88;70.91;98757.28;5112179;28;20012;-49
2021/08/21 04:49:59;;;;;;;17.05;13.38;;;;;;;17.91;70.76;98759.47;5112162;28;20026;-50
2021/08/21 04:52:25;;;;;;;12.68;11.48;;;;;;;18.10;70.65;98757.28;5112178;28;20019;-48
2021/08/21 04:54:51;;;;;;;12.32;5.15;;;;;;;18.31;69.90;98768.13;5112088;28;20028;-49
2021/08/21 04:57:17;;;;;;;11.48;6.72;;;;;;;18.42;69.43;98761.91;5112052;28;20024;-49
2021/08/21 04:59:43;;;;;;;23.73;19.80;;;;;;;18.55;68.82;98766.00;5093613;28;20102;-48
2021/08/21 05:02:09;;;;;;;22.88;17.15;;;;;;;18.73;68.58;98767.50;5112056;28;20108;-49
2021/08/21 05:04:35;;;;;;;24.45;19.52;;;;;;;18.89;69.89;98766.63;5093681;28;20489;-49
2021/08/21 05:07:03;;;;;;;230.77;209.95;;;;;;;19.07;70.99;98764.66;5112030;28;20030;-49
2021/08/21 05:09:29;;;;;;;35.03;31.55;;;;;;;19.06;71.72;98755.88;5111965;28;20027;-49
2021/08/21 05:11:55;;;;;;;86.72;78.47;;;;;;;19.23;71.49;98758.41;5111744;28;20093;-49
2021/08/21 05:14:21;;;;;;;120.97;103.82;;;;;;;19.49;69.94;98767.34;5111918;28;20020;-49
2021/08/21 05:16:47;;;;;;;238.82;214.45;;;;;;;19.58;68.73;98770.34;5111915;28;20066;-49
2021/08/21 05:19:38;;;;;;;378.95;340.27;;;;;;;19.77;68.80;98772.63;5111783;28;20019;-49
2021/08/21 05:24:43;;;;;;;425.35;381.17;;;;;;;20.40;66.20;98780.59;5111904;28;20073;-49
2021/08/21 05:27:09;;;;;;;127.47;89.38;;;;;;;20.64;64.88;98781.75;5111820;28;20024;-49
2021/08/21 05:29:35;;;;;;;462.77;391.17;;;;;;;21.05;63.27;98779.16;5114416;28;20189;-49
2021/08/21 05:32:01;;;;;;;120.38;99.95;;;;;;;21.53;61.57;98785.00;5115747;28;20516;-49
2021/08/21 05:34:27;;;;;;;72.72;57.03;;;;;;;21.80;60.08;98783.88;5115638;28;20505;-49
2021/08/21 05:36:53;;;;;;;252.18;226.75;;;;;;;22.04;59.50;98788.63;5114241;28;20137;-49
2021/08/21 05:39:18;;;;;;;78.90;71.00;;;;;;;22.37;58.46;98787.16;5097157;28;20020;-49
2021/08/21 05:41:44;;;;;;;66.72;60.17;;;;;;;22.79;57.49;98793.09;5114174;28;20472;-49
2021/08/21 05:44:10;;;;;;;89.85;75.50;;;;;;;23.07;56.45;98791.56;5115495;28;20405;-49
2021/08/21 05:46:36;;;;;;;153.43;137.95;;;;;;;23.29;56.41;98791.91;5115675;28;20294;-50
2021/08/21 05:49:01;;;;;;;73.97;64.47;;;;;;;23.47;56.11;98798.47;5114062;28;20107;-49
2021/08/21 05:51:29;;;;;;;36.10;32.28;;;;;;;23.89;55.23;98791.63;5115342;28;20020;-50
2021/08/21 05:53:56;;;;;;;13.05;11.15;;;;;;;24.04;53.12;98797.91;5114014;28;20512;-49
2021/08/21 05:56:22;;;;;;;66.88;60.75;;;;;;;24.30;52.45;98796.50;5115211;28;20019;-49
2021/08/21 05:58:47;;;;;;;20.48;18.52;;;;;;;24.71;51.22;98801.34;5115165;28;20511;-49
2021/08/21 06:01:13;;;;;;;21.75;17.77;;;;;;;25.06;50.08;98809.16;5113837;28;20035;-49
2021/08/21 06:03:39;;;;;;;23.90;21.70;;;;;;;25.30;49.20;98801.78;5115132;28;20026;-49
2021/08/21 06:06:04;;;;;;;67.72;52.78;;;;;;;25.37;49.06;98800.63;5115091;28;20015;-49
2021/08/21 06:08:30;;;;;;;27.27;24.58;;;;;;;25.78;47.97;98791.84;5115076;28;20111;-49
2021/08/21 06:10:57;;;;;;;55.83;51.15;;;;;;;26.25;47.00;98806.78;5114788;28;20075;-49
2021/08/21 06:13:24;;;;;;;107.55;99.30;;;;;;;26.71;46.16;98805.03;5114939;28;20393;-49
2021/08/21 06:15:50;;;;;;;21.20;14.93;;;;;;;27.41;44.69;98810.94;5114906;28;20027;-49
2021/08/21 06:18:15;;;;;;;6.80;6.10;;;;;;;27.76;43.04;98806.50;5113419;28;20496;-50
2021/08/21 06:20:41;;;;;;;8.95;5.55;;;;;;;27.93;42.13;98808.50;5114785;28;20058;-50
2021/08/21 06:23:06;;;;;;;5.15;4.50;;;;;;;28.21;41.83;98808.25;5096408;28;20028;-49
2021/08/21 06:25:32;;;;;;;10.00;6.82;;;;;;;28.52;41.16;98813.59;5114643;28;20046;-49
2021/08/21 06:27:58;;;;;;;383.33;345.67;;;;;;;28.70;40.37;98813.59;5114595;28;20032;-49
2021/08/21 06:30:23;;;;;;;216.38;195.52;;;;;;;28.58;40.50;98811.53;5114570;28;20525;-50
2021/08/21 06:32:49;;;;;;;346.00;308.15;;;;;;;28.52;41.12;98818.97;5113240;28;20120;-49
2021/08/21 06:35:15;;;;;;;309.63;234.40;;;;;;;28.72;40.70;98820.28;5114449;28;20546;-49
2021/08/21 06:37:40;;;;;;;274.88;223.65;;;;;;;29.07;40.51;98820.25;5114464;28;20481;-49
2021/08/21 06:40:07;;;;;;;60.58;54.53;;;;;;;29.48;39.21;98824.34;5113468;28;20027;-49
2021/08/21 06:42:33;;;;;;;18.80;16.95;;;;;;;29.35;39.08;98818.00;5114320;28;20050;-49
2021/08/21 06:44:58;;;;;;;15.65;14.25;;;;;;;29.19;39.49;98825.03;5114351;28;20401;-49
2021/08/21 06:47:24;;;;;;;12.60;9.65;;;;;;;29.01;39.38;98821.53;5114223;28;20027;-49
2021/08/21 06:49:50;;;;;;;7.68;5.20;;;;;;;28.86;39.97;98822.81;5114166;28;20032;-50
2021/08/21 06:52:15;;;;;;;21.02;11.45;;;;;;;28.74;40.72;98819.97;5114123;28;20028;-49
2021/08/21 06:54:41;;;;;;;9.52;4.68;;;;;;;28.83;40.29;98824.22;5114129;28;20371;-49
2021/08/21 06:57:07;;;;;;;6.28;5.15;;;;;;;28.81;39.99;98817.56;5114061;28;20500;-50
2021/08/21 06:59:33;;;;;;;11.85;8.20;;;;;;;29.16;40.01;98825.69;5095635;28;20020;-49
2021/08/21 07:02:02;;;;;;;10.57;8.05;;;;;;;29.09;39.83;98826.91;5113968;28;20514;-49
2021/08/21 07:04:28;;;;;;;9.00;7.53;;;;;;;29.15;39.87;98826.78;5113848;28;20030;-49
2021/08/21 07:06:54;;;;;;;12.27;10.27;;;;;;;29.36;39.86;98826.91;5113911;28;20028;-49
2021/08/21 07:09:20;;;;;;;8.00;5.22;;;;;;;29.45;38.79;98824.97;5114427;28;20031;-49
2021/08/21 07:11:45;;;;;;;9.07;6.97;;;;;;;29.68;38.27;98822.88;5113534;28;20049;-49
2021/08/21 07:14:11;;;;;;;10.60;6.18;;;;;;;29.86;38.12;98818.19;5113755;28;20022;-49
2021/08/21 07:16:37;;;;;;;6.53;4.32;;;;;;;30.05;37.39;98821.28;5113663;28;20034;-49
2021/08/21 07:19:05;;;;;;;9.02;4.25;;;;;;;30.29;37.27;98825.31;5095182;28;20032;-50
2021/08/21 07:21:31;;;;;;;7.40;6.03;;;;;;;30.70;36.77;98822.97;5113547;28;20027;-49
2021/08/21 07:23:57;;;;;;;7.05;4.70;;;;;;;31.15;36.09;98820.38;5113585;28;20523;-49
2021/08/21 07:26:22;;;;;;;7.97;4.30;;;;;;;31.45;35.38;98822.97;5095096;28;20382;-49
2021/08/21 07:28:48;;;;;;;5.88;4.15;;;;;;;31.93;34.76;98816.00;5113453;28;20020;-49
2021/08/21 07:31:14;;;;;;;6.00;5.20;;;;;;;32.13;34.09;98819.75;5113353;28;20054;-49
2021/08/21 07:33:39;;;;;;;11.18;3.92;;;;;;;32.23;33.68;98827.44;5113361;28;20030;-49
2021/08/21 07:36:05;;;;;;;10.18;5.15;;;;;;;32.72;33.01;98823.06;5113321;28;20605;-49
2021/08/21 07:38:31;;;;;;;7.45;6.03;;;;;;;33.62;31.83;98824.41;5113167;28;20030;-49
2021/08/21 07:40:57;;;;;;;8.52;6.53;;;;;;;34.85;30.50;98819.75;5094843;28;20089;-49
2021/08/21 07:43:22;;;;;;;8.52;6.05;;;;;;;35.87;29.14;98815.75;5113145;28;20481;-49
2021/08/21 07:45:48;;;;;;;15.23;5.93;;;;;;;36.29;28.69;98817.56;5113096;28;20023;-50
2021/08/21 07:48:15;;;;;;;14.40;12.30;;;;;;;37.21;27.37;98810.09;5113005;28;20059;-50
2021/08/21 07:50:42;;;;;;;9.05;7.88;;;;;;;37.55;26.87;98814.34;5112987;28;20024;-50
2021/08/21 07:53:08;;;;;;;30.52;27.48;;;;;;;38.26;26.21;98812.53;5113222;28;20374;-49
2021/08/21 07:55:34;;;;;;;23.20;16.92;;;;;;;39.05;24.99;98804.66;5111577;28;20023;-50
2021/08/21 07:58:00;;;;;;;11.43;6.40;;;;;;;38.10;24.73;98807.34;5111563;28;20020;-52
2021/08/21 08:00:25;;;;;;;5.30;4.40;;;;;;;36.86;26.23;98819.47;5094388;28;20071;-52
2021/08/21 08:02:51;;;;;;;8.95;5.65;;;;;;;36.25;27.11;98816.75;5112835;28;20046;-52
2021/08/21 08:05:17;;;;;;;10.13;7.18;;;;;;;36.05;27.95;98816.03;5112698;28;20028;-52
2021/08/21 08:07:42;;;;;;;52.75;47.72;;;;;;;36.36;27.74;98812.22;5112723;28;20023;-52
2021/08/21 08:10:09;;;;;;;8.48;6.38;;;;;;;37.34;26.16;98816.88;5112333;28;20503;-52
2021/08/21 08:12:35;;;;;;;11.52;7.95;;;;;;;37.12;26.34;98815.88;5112604;28;20050;-52
2021/08/21 08:15:02;;;;;;;23.35;19.13;;;;;;;36.61;27.29;98827.38;5112648;28;20020;-52
2021/08/21 08:17:28;;;;;;;5.60;4.20;;;;;;;37.26;26.79;98823.44;5112517;28;20023;-52
2021/08/21 08:19:53;;;;;;;11.55;5.78;;;;;;;37.94;25.56;98813.88;5112445;28;20439;-52
2021/08/21 08:22:25;;;;;;;6.38;4.00;;;;;;;37.69;25.35;98829.31;5094375;28;20054;-52
2021/08/21 08:24:51;;;;;;;7.55;4.07;;;;;;;37.49;26.18;98826.81;5112408;28;20023;-51
2021/08/21 08:27:18;;;;;;;6.63;4.60;;;;;;;37.89;25.63;98822.47;5094138;28;20051;-51
2021/08/21 08:29:45;;;;;;;6.90;3.47;;;;;;;38.36;25.09;98834.50;5112626;28;20026;-52
2021/08/21 08:32:10;;;;;;;15.73;14.35;;;;;;;38.57;25.24;98830.31;5112341;28;20016;-51
2021/08/21 08:34:37;;;;;;;6.45;4.00;;;;;;;39.45;23.80;98841.22;5112389;28;20516;-52
2021/08/21 08:37:09;;;;;;;11.95;4.70;;;;;;;40.01;23.27;98833.38;5112300;28;20098;-51
2021/08/21 08:39:36;;;;;;;6.63;4.68;;;;;;;40.28;22.68;98836.44;5112319;28;20384;-52
2021/08/21 08:42:02;;;;;;;3.85;3.17;;;;;;;40.15;23.62;98838.84;5112279;28;20032;-51
2021/08/21 08:44:32;;;;;;;8.93;4.20;;;;;;;40.19;23.97;98845.13;5112174;28;20024;-52
2021/08/21 08:47:00;;;;;;;7.38;3.00;;;;;;;40.49;22.31;98841.91;5112261;28;20027;-52
2021/08/21 08:49:27;;;;;;;3.75;2.95;;;;;;;40.18;22.73;98840.78;5111664;28;20066;-52
2021/08/21 08:51:53;;;;;;;4.28;3.28;;;;;;;40.24;22.27;98835.69;5112194;28;20023;-52
2021/08/21 08:54:19;;;;;;;13.98;7.65;;;;;;;39.86;23.09;98841.63;5093848;28;20020;-52
2021/08/21 08:56:45;;;;;;;11.25;4.97;;;;;;;39.98;22.92;98851.44;5112153;28;20065;-52
2021/08/21 08:59:11;;;;;;;5.63;4.22;;;;;;;40.82;21.87;98852.81;5111997;28;20028;-52
2021/08/21 09:01:40;;;;;;;9.52;4.43;;;;;;;41.57;21.93;98846.84;5112060;28;20030;-52
2021/08/21 09:04:17;;;;;;;9.38;5.32;;;;;;;42.07;20.62;98848.44;5115492;28;20023;-51
2021/08/21 09:06:43;;;;;;;9.35;3.30;;;;;;;42.35;21.14;98847.34;5116152;28;20026;-52
2021/08/21 09:09:23;;;;;;;20.48;7.45;;;;;;;42.71;20.79;98846.97;5116132;28;20023;-52
2021/08/21 09:11:52;;;;;;;7.93;3.88;;;;;;;42.88;20.46;98847.94;5115942;28;20400;-52
2021/08/21 09:14:29;;;;;;;4.00;3.30;;;;;;;42.70;17.73;98854.47;5116053;28;20504;-52
2021/08/21 09:17:17;;;;;;;4.57;3.25;;;;;;;41.61;18.99;98857.88;5116077;28;20061;-52
2021/08/21 09:19:45;;;;;;;10.32;3.92;;;;;;;41.17;19.62;98856.56;5116264;28;20030;-52
2021/08/21 09:22:12;;;;;;;3.92;3.15;;;;;;;40.75;19.50;98855.59;5115916;28;20119;-52
2021/08/21 09:24:39;;;;;;;7.70;3.90;;;;;;;40.46;20.59;98855.69;5115914;28;20020;-52
2021/08/21 09:27:21;;;;;;;9.95;8.95;;;;;;;41.12;20.32;98852.28;5115749;28;20138;-52
2021/08/21 09:30:11;;;;;;;8.48;5.57;;;;;;;42.17;19.59;98850.31;5115879;28;20035;-52
2021/08/21 09:32:37;;;;;;;6.00;3.80;;;;;;;43.06;18.77;98853.22;5115806;28;20031;-53
2021/08/21 09:35:05;;;;;;;8.63;3.47;;;;;;;43.51;18.31;98855.75;5115604;28;20032;-52
2021/08/21 09:37:45;;;;;;;4.05;3.40;;;;;;;43.82;17.62;98853.66;5115643;28;20020;-52
2021/08/21 09:40:21;;;;;;;4.68;3.42;;;;;;;43.77;16.92;98856.91;5115497;28;20046;-52
2021/08/21 09:42:46;;;;;;;4.90;3.05;;;;;;;43.44;17.26;98862.16;5115614;28;20059;-51
2021/08/21 09:45:13;;;;;;;15.25;9.73;;;;;;;43.06;17.32;98851.22;5115452;28;20100;-52
2021/08/21 09:47:39;;;;;;;4.50;3.15;;;;;;;43.24;16.90;98842.69;5115458;28;20022;-53
2021/08/21 09:50:18;;;;;;;6.03;3.42;;;;;;;43.31;16.73;98852.09;5115345;28;20034;-53
2021/08/21 09:52:45;;;;;;;4.80;4.40;;;;;;;42.90;17.61;98851.06;5115382;28;20137;-52
2021/08/21 09:55:20;;;;;;;24.35;22.17;;;;;;;42.76;17.73;98845.72;5115313;28;20028;-53
2021/08/21 09:58:05;;;;;;;8.48;7.28;;;;;;;42.87;17.67;98844.41;5115333;28;20456;-52
2021/08/21 10:00:36;;;;;;;8.05;5.95;;;;;;;42.57;17.76;98850.69;5115145;28;20229;-52
2021/08/21 10:03:05;;;;;;;10.02;4.22;;;;;;;42.43;17.89;98845.31;5115369;28;20035;-52
2021/08/21 10:05:32;;;;;;;10.38;4.65;;;;;;;42.73;18.20;98844.56;5096701;28;20077;-53
2021/08/21 10:08:09;;;;;;;7.53;5.97;;;;;;;43.17;17.42;98848.34;5115045;28;20019;-52
2021/08/21 10:10:36;;;;;;;107.20;95.97;;;;;;;43.37;17.63;98847.69;5114718;28;20082;-53
2021/08/21 10:13:10;;;;;;;14.70;12.30;;;;;;;43.00;16.92;98843.84;5114998;28;20024;-52
2021/08/21 10:15:39;;;;;;;7.38;4.88;;;;;;;42.20;17.60;98845.94;5095395;28;20038;-53
2021/08/21 10:18:06;;;;;;;13.80;6.88;;;;;;;41.76;18.23;98844.78;5114854;28;20027;-53
2021/08/21 10:20:35;;;;;;;5.88;3.67;;;;;;;41.20;18.45;98844.78;5114746;28;20110;-53
2021/08/21 10:23:14;;;;;;;8.73;6.75;;;;;;;41.20;18.21;98847.53;5114741;28;20016;-52
2021/08/21 10:25:47;;;;;;;7.63;3.75;;;;;;;41.05;18.73;98844.03;5114715;28;20047;-52
2021/08/21 10:28:16;;;;;;;9.57;7.03;;;;;;;40.99;18.07;98849.22;5114575;28;20062;-53
2021/08/21 10:30:47;;;;;;;6.20;3.30;;;;;;;40.69;18.54;98844.19;5096249;28;20560;-52
2021/08/21 10:33:14;;;;;;;4.78;3.00;;;;;;;40.70;19.28;98837.50;5096165;28;20020;-53
2021/08/21 10:35:49;;;;;;;3.20;2.53;;;;;;;40.92;18.89;98835.47;5114778;28;20024;-53
2021/08/21 10:38:31;;;;;;;6.55;3.50;;;;;;;41.19;18.67;98832.19;5114415;28;20020;-52
2021/08/21 10:40:58;;;;;;;5.35;3.00;;;;;;;41.20;18.64;98831.00;5114432;28;20030;-52
2021/08/21 10:43:42;;;;;;;8.10;3.35;;;;;;;41.45;18.98;98826.09;5096094;28;20027;-52
2021/08/21 10:46:08;;;;;;;3.25;2.88;;;;;;;41.56;19.08;98828.78;5114337;28;20019;-52
2021/08/21 10:48:37;;;;;;;6.20;3.10;;;;;;;41.51;18.74;98821.72;5114337;28;20052;-52
2021/08/21 10:51:26;;;;;;;5.10;2.95;;;;;;;41.72;18.17;98822.75;5114272;28;20019;-51
2021/08/21 10:53:52;;;;;;;3.20;2.80;;;;;;;41.64;18.38;98813.00;5095751;28;20034;-52
2021/08/21 10:56:35;;;;;;;6.07;3.78;;;;;;;41.64;18.31;98813.78;5114131;28;20024;-53
2021/08/21 10:59:01;;;;;;;3.05;2.60;;;;;;;41.07;17.84;98814.13;5114335;28;20055;-52
2021/08/21 11:01:27;;;;;;;4.20;2.88;;;;;;;39.85;19.05;98811.78;5113952;28;20027;-52
2021/08/21 11:03:53;;;;;;;6.15;3.15;;;;;;;39.07;19.91;98814.06;5114062;28;20054;-52
2021/08/21 11:06:30;;;;;;;5.30;2.97;;;;;;;38.84;20.25;98821.81;5113943;28;20084;-51
2021/08/21 11:08:58;;;;;;;5.72;2.88;;;;;;;39.13;19.80;98809.75;5095632;28;20023;-52
2021/08/21 11:11:28;;;;;;;4.30;2.55;;;;;;;39.74;19.72;98814.50;5095272;28;20039;-53
2021/08/21 11:14:06;;;;;;;3.45;3.05;;;;;;;39.92;19.45;98817.28;5114177;28;20030;-52
2021/08/21 11:16:54;;;;;;;3.88;2.70;;;;;;;39.93;18.75;98814.13;5113732;28;20574;-51
2021/08/21 11:19:46;;;;;;;4.07;2.75;;;;;;;39.85;18.88;98817.28;5113672;28;20019;-53
2021/08/21 11:22:11;;;;;;;5.68;3.28;;;;;;;39.38;18.85;98814.47;5113577;28;20028;-53
2021/08/21 11:24:53;;;;;;;5.35;3.50;;;;;;;39.17;19.56;98815.25;5113564;28;20023;-52
2021/08/21 11:27:28;;;;;;;2.83;2.50;;;;;;;39.27;19.58;98810.97;5113210;28;20034;-53
2021/08/21 11:30:09;;;;;;;5.07;2.63;;;;;;;39.43;19.77;98803.16;5113468;28;20116;-53
2021/08/21 11:32:57;;;;;;;4.35;2.65;;;;;;;39.75;19.80;98810.59;5113447;28;20040;-53